createdAt,value
2018-09-04T00:00:44.053Z,0.00
2018-09-04T00:01:44.062Z,0.00
2018-09-04T00:02:44.076Z,0.00
2018-09-04T00:03:44.069Z,0.00
2018-09-04T00:04:44.144Z,0.00
2018-09-04T00:05:44.120Z,0.00
2018-09-04T00:06:44.138Z,0.00
2018-09-04T00:07:44.129Z,0.00
2018-09-04T00:08:44.150Z,0.00
2018-09-04T00:09:44.153Z,0.00
2018-09-04T00:10:44.166Z,0.00
2018-09-04T00:11:44.207Z,0.00
2018-09-04T00:12:44.203Z,0.00
2018-09-04T00:13:44.232Z,0.00
2018-09-04T00:14:44.247Z,0.00
2018-09-04T00:15:44.223Z,0.00
2018-09-04T00:16:44.248Z,0.00
2018-09-04T00:17:44.254Z,0.00
2018-09-04T00:18:44.240Z,0.00
2018-09-04T00:19:44.294Z,0.00
2018-09-04T00:20:44.291Z,0.00
2018-09-04T00:21:44.274Z,0.00
2018-09-04T00:22:44.286Z,0.00
2018-09-04T00:23:44.354Z,0.00
2018-09-04T00:24:44.335Z,0.00
2018-09-04T00:25:44.385Z,0.00
2018-09-04T00:26:44.339Z,0.00
2018-09-04T00:27:44.378Z,0.00
2018-09-04T00:28:44.388Z,0.00
2018-09-04T00:29:44.382Z,0.00
2018-09-04T00:30:44.420Z,0.00
2018-09-04T00:31:44.403Z,0.00
2018-09-04T00:32:44.460Z,0.00
2018-09-04T00:33:44.423Z,0.00
2018-09-04T00:34:44.450Z,0.00
2018-09-04T00:35:44.464Z,0.00
2018-09-04T00:36:44.456Z,0.00
2018-09-04T00:37:44.500Z,0.00
2018-09-04T00:38:44.497Z,0.00
2018-09-04T00:39:44.485Z,0.00
2018-09-04T00:40:44.533Z,0.00
2018-09-04T00:41:44.521Z,0.00
2018-09-04T00:42:44.549Z,0.00
2018-09-04T00:43:44.548Z,0.00
2018-09-04T00:44:44.577Z,0.00
2018-09-04T00:45:44.614Z,0.00
2018-09-04T00:46:44.567Z,0.00
2018-09-04T00:47:44.588Z,0.00
2018-09-04T00:48:44.610Z,0.00
2018-09-04T00:49:44.635Z,0.00
2018-09-04T00:50:44.631Z,0.00
2018-09-04T00:51:44.645Z,0.00
2018-09-04T00:52:44.647Z,0.00
2018-09-04T00:53:44.717Z,0.00
2018-09-04T00:54:44.667Z,0.00
2018-09-04T00:55:44.679Z,0.00
2018-09-04T00:56:44.704Z,0.00
2018-09-04T00:57:44.700Z,0.00
2018-09-04T00:58:44.746Z,0.00
2018-09-04T00:59:44.729Z,0.00
2018-09-04T01:00:44.743Z,0.00
2018-09-04T01:01:44.752Z,0.00
2018-09-04T01:02:44.783Z,0.00
2018-09-04T01:03:44.779Z,0.00
2018-09-04T01:04:44.801Z,0.00
2018-09-04T01:05:44.817Z,0.00
2018-09-04T01:06:44.808Z,0.00
2018-09-04T01:07:44.830Z,0.00
2018-09-04T01:08:44.834Z,0.00
2018-09-04T01:09:44.857Z,0.00
2018-09-04T01:10:44.862Z,0.00
2018-09-04T01:11:44.865Z,0.00
2018-09-04T01:12:44.869Z,0.00
2018-09-04T01:13:44.933Z,0.00
2018-09-04T01:14:44.898Z,0.00
2018-09-04T01:15:44.916Z,0.00
2018-09-04T01:16:44.919Z,0.00
2018-09-04T01:17:44.929Z,0.00
2018-09-04T01:18:44.989Z,0.00
2018-09-04T01:19:44.980Z,0.00
2018-09-04T01:20:44.964Z,0.00
2018-09-04T01:21:44.977Z,0.00
2018-09-04T01:22:45.016Z,0.00
2018-09-04T01:23:45.000Z,0.00
2018-09-04T01:24:45.028Z,0.00
2018-09-04T01:25:45.008Z,0.00
2018-09-04T01:26:45.057Z,0.00
2018-09-04T01:27:45.042Z,0.00
2018-09-04T01:28:45.073Z,0.00
2018-09-04T01:29:45.090Z,0.00
2018-09-04T01:30:45.096Z,0.00
2018-09-04T01:31:45.101Z,0.00
2018-09-04T01:32:45.112Z,0.00
2018-09-04T01:33:45.129Z,0.00
2018-09-04T01:34:45.116Z,0.00
2018-09-04T01:35:45.175Z,0.00
2018-09-04T01:36:45.131Z,0.00
2018-09-04T01:37:45.144Z,0.00
2018-09-04T01:38:45.156Z,0.00
2018-09-04T01:39:45.177Z,0.00
2018-09-04T01:40:45.229Z,0.00
2018-09-04T01:41:45.235Z,0.00
2018-09-04T01:42:45.241Z,0.00
2018-09-04T01:43:45.224Z,0.00
2018-09-04T01:44:45.265Z,0.00
2018-09-04T01:45:45.250Z,0.00
2018-09-04T01:46:45.301Z,0.00
2018-09-04T01:47:45.279Z,0.00
2018-09-04T01:48:45.280Z,0.00
2018-09-04T01:49:45.299Z,0.00
2018-09-04T01:50:45.300Z,0.00
2018-09-04T01:51:45.343Z,0.00
2018-09-04T01:52:45.308Z,0.00
2018-09-04T01:53:45.317Z,0.00
2018-09-04T01:54:45.380Z,0.00
2018-09-04T01:55:45.369Z,0.00
2018-09-04T01:56:45.380Z,0.00
2018-09-04T01:57:45.379Z,0.00
2018-09-04T01:58:45.405Z,0.00
2018-09-04T01:59:45.442Z,0.00
2018-09-04T02:00:45.408Z,0.00
2018-09-04T02:01:45.435Z,0.00
2018-09-04T02:02:45.458Z,0.00
2018-09-04T02:03:45.435Z,0.00
2018-09-04T02:04:45.486Z,0.00
2018-09-04T02:05:45.485Z,0.00
2018-09-04T02:06:45.481Z,0.00
2018-09-04T02:07:45.524Z,0.00
2018-09-04T02:08:45.508Z,0.00
2018-09-04T02:09:45.514Z,0.00
2018-09-04T02:10:46.155Z,0.00
2018-09-04T02:11:45.550Z,0.00
2018-09-04T02:12:45.557Z,0.00
2018-09-04T02:13:45.570Z,0.00
2018-09-04T02:14:45.555Z,0.00
2018-09-04T02:15:45.621Z,0.00
2018-09-04T02:16:45.604Z,0.00
2018-09-04T02:17:45.630Z,0.00
2018-09-04T02:18:45.621Z,0.00
2018-09-04T02:19:45.629Z,0.00
2018-09-04T02:20:45.687Z,0.00
2018-09-04T02:21:45.643Z,0.00
2018-09-04T02:22:45.672Z,0.00
2018-09-04T02:23:45.733Z,0.00
2018-09-04T02:24:45.716Z,0.00
2018-09-04T02:25:45.694Z,0.00
2018-09-04T02:26:45.699Z,0.00
2018-09-04T02:27:45.713Z,0.00
2018-09-04T02:28:45.778Z,0.00
2018-09-04T02:29:45.789Z,0.00
2018-09-04T02:30:45.742Z,0.00
2018-09-04T02:31:45.752Z,0.00
2018-09-04T02:32:45.775Z,0.00
2018-09-04T02:33:45.793Z,0.00
2018-09-04T02:34:45.835Z,0.00
2018-09-04T02:35:45.840Z,0.00
2018-09-04T02:36:45.831Z,0.00
2018-09-04T02:37:45.812Z,0.00
2018-09-04T02:38:45.857Z,0.00
2018-09-04T02:39:45.833Z,0.00
2018-09-04T02:40:45.859Z,0.00
2018-09-04T02:41:45.903Z,0.00
2018-09-04T02:42:45.898Z,0.00
2018-09-04T02:43:45.901Z,0.00
2018-09-04T02:44:45.902Z,0.00
2018-09-04T02:45:45.924Z,0.00
2018-09-04T02:46:46.023Z,0.00
2018-09-04T02:47:45.982Z,0.00
2018-09-04T02:48:45.973Z,0.00
2018-09-04T02:49:45.954Z,0.00
2018-09-04T02:50:46.015Z,0.00
2018-09-04T02:51:45.977Z,0.00
2018-09-04T02:52:46.024Z,0.00
2018-09-04T02:53:46.028Z,0.00
2018-09-04T02:54:46.031Z,0.00
2018-09-04T02:55:46.045Z,0.00
2018-09-04T02:56:46.047Z,0.00
2018-09-04T02:57:46.103Z,0.00
2018-09-04T02:58:46.103Z,0.00
2018-09-04T02:59:46.071Z,0.00
2018-09-04T03:00:46.081Z,0.00
2018-09-04T03:01:46.096Z,0.00
2018-09-04T03:02:46.096Z,0.00
2018-09-04T03:03:46.151Z,0.00
2018-09-04T03:04:46.173Z,0.00
2018-09-04T03:05:46.138Z,0.00
2018-09-04T03:06:46.170Z,0.00
2018-09-04T03:07:46.160Z,0.00
2018-09-04T03:08:46.228Z,0.00
2018-09-04T03:09:46.193Z,0.00
2018-09-04T03:10:46.183Z,0.00
2018-09-04T03:11:46.220Z,0.00
2018-09-04T03:12:46.228Z,0.00
2018-09-04T03:13:46.284Z,0.00
2018-09-04T03:14:46.240Z,0.00
2018-09-04T03:15:46.245Z,0.00
2018-09-04T03:16:46.289Z,0.00
2018-09-04T03:17:46.281Z,0.00
2018-09-04T03:18:46.288Z,0.00
2018-09-04T03:19:46.308Z,0.00
2018-09-04T03:20:46.326Z,0.00
2018-09-04T03:21:46.316Z,0.00
2018-09-04T03:22:46.328Z,0.00
2018-09-04T03:23:46.335Z,0.00
2018-09-04T03:24:46.356Z,0.00
2018-09-04T03:25:46.382Z,0.00
2018-09-04T03:26:46.430Z,0.00
2018-09-04T03:27:46.403Z,0.00
2018-09-04T03:28:46.410Z,0.00
2018-09-04T03:29:46.403Z,0.00
2018-09-04T03:30:46.439Z,0.00
2018-09-04T03:31:46.472Z,0.00
2018-09-04T03:32:46.474Z,0.00
2018-09-04T03:33:46.476Z,0.00
2018-09-04T03:34:46.475Z,0.00
2018-09-04T03:35:46.454Z,0.00
2018-09-04T03:36:46.486Z,0.00
2018-09-04T03:37:46.523Z,0.00
2018-09-04T03:38:46.524Z,0.00
2018-09-04T03:39:46.545Z,0.00
2018-09-04T03:40:46.513Z,0.00
2018-09-04T03:41:46.537Z,0.00
2018-09-04T03:42:46.581Z,0.00
2018-09-04T03:43:46.557Z,0.00
2018-09-04T03:44:46.594Z,0.00
2018-09-04T03:45:46.576Z,0.00
2018-09-04T03:46:46.589Z,0.00
2018-09-04T03:47:46.939Z,0.00
2018-09-04T03:48:46.626Z,0.00
2018-09-04T03:49:46.638Z,0.00
2018-09-04T03:50:46.657Z,4.00
2018-09-04T03:51:46.653Z,4.00
2018-09-04T03:52:46.667Z,0.00
2018-09-04T03:53:46.689Z,4.00
2018-09-04T03:54:46.686Z,4.00
2018-09-04T03:55:46.710Z,4.00
2018-09-04T03:56:46.700Z,8.00
2018-09-04T03:57:46.704Z,8.00
2018-09-04T03:58:46.722Z,8.00
2018-09-04T03:59:46.749Z,8.00
2018-09-04T04:00:46.782Z,8.00
2018-09-04T04:01:46.786Z,12.00
2018-09-04T04:02:46.772Z,12.00
2018-09-04T04:03:46.822Z,16.00
2018-09-04T04:04:46.925Z,20.00
2018-09-04T04:05:46.827Z,20.00
2018-09-04T04:06:46.823Z,28.00
2018-09-04T04:07:46.823Z,32.00
2018-09-04T04:08:46.928Z,36.00
2018-09-04T04:09:46.865Z,40.00
2018-09-04T04:10:46.849Z,44.00
2018-09-04T04:11:46.870Z,48.00
2018-09-04T04:12:46.913Z,56.00
2018-09-04T04:13:46.923Z,60.00
2018-09-04T04:14:46.893Z,68.00
2018-09-04T04:15:46.921Z,80.00
2018-09-04T04:16:46.930Z,92.00
2018-09-04T04:17:46.954Z,108.00
2018-09-04T04:18:47.065Z,124.00
2018-09-04T04:19:46.946Z,144.00
2018-09-04T04:20:46.945Z,160.00
2018-09-04T04:21:46.995Z,176.00
2018-09-04T04:22:47.001Z,196.00
2018-09-04T04:23:47.004Z,212.00
2018-09-04T04:24:47.015Z,236.00
2018-09-04T04:25:47.015Z,256.00
2018-09-04T04:26:47.073Z,272.00
2018-09-04T04:27:47.041Z,288.00
2018-09-04T04:28:47.092Z,308.00
2018-09-04T04:29:47.071Z,332.00
2018-09-04T04:30:47.082Z,356.00
2018-09-04T04:31:47.103Z,388.00
2018-09-04T04:32:47.184Z,412.00
2018-09-04T04:33:47.093Z,448.00
2018-09-04T04:34:47.115Z,476.00
2018-09-04T04:35:47.116Z,512.00
2018-09-04T04:36:47.143Z,552.00
2018-09-04T04:37:47.200Z,592.00
2018-09-04T04:38:47.152Z,632.00
2018-09-04T04:39:47.288Z,668.00
2018-09-04T04:40:48.071Z,700.00
2018-09-04T04:41:47.187Z,732.00
2018-09-04T04:42:47.197Z,764.00
2018-09-04T04:43:47.293Z,800.00
2018-09-04T04:44:47.215Z,836.00
2018-09-04T04:45:47.228Z,864.00
2018-09-04T04:46:47.241Z,924.00
2018-09-04T04:47:47.281Z,936.00
2018-09-04T04:48:47.847Z,964.00
2018-09-04T04:49:47.286Z,1000.00
2018-09-04T04:50:47.314Z,1036.00
2018-09-04T04:51:47.331Z,1060.00
2018-09-04T04:52:47.302Z,1092.00
2018-09-04T04:53:47.318Z,1116.00
2018-09-04T04:54:47.307Z,1156.00
2018-09-04T04:55:47.399Z,1180.00
2018-09-04T04:56:47.329Z,1208.00
2018-09-04T04:57:47.374Z,1244.00
2018-09-04T04:58:47.366Z,1272.00
2018-09-04T04:59:47.372Z,1304.00
2018-09-04T05:00:47.441Z,1328.00
2018-09-04T05:01:47.406Z,1356.00
2018-09-04T05:02:47.416Z,1384.00
2018-09-04T05:03:47.435Z,1412.00
2018-09-04T05:04:47.420Z,1464.00
2018-09-04T05:05:47.478Z,1532.00
2018-09-04T05:06:47.474Z,1596.00
2018-09-04T05:07:47.670Z,1652.00
2018-09-04T05:08:47.467Z,1724.00
2018-09-04T05:09:47.483Z,1784.00
2018-09-04T05:10:47.508Z,1844.00
2018-09-04T05:11:47.525Z,1904.00
2018-09-04T05:12:47.569Z,1936.00
2018-09-04T05:13:47.564Z,1988.00
2018-09-04T05:14:47.552Z,2032.00
2018-09-04T05:15:47.534Z,2020.00
2018-09-04T05:16:47.568Z,2068.00
2018-09-04T05:17:48.221Z,2208.00
2018-09-04T05:18:47.576Z,2300.00
2018-09-04T05:19:47.595Z,2348.00
2018-09-04T05:20:47.724Z,2420.00
2018-09-04T05:21:47.643Z,2464.00
2018-09-04T05:22:47.724Z,2060.00
2018-09-04T05:23:47.668Z,2232.00
2018-09-04T05:24:47.649Z,2608.00
2018-09-04T05:25:47.658Z,2620.00
2018-09-04T05:26:47.687Z,2700.00
2018-09-04T05:27:47.674Z,2736.00
2018-09-04T05:28:47.736Z,2772.00
2018-09-04T05:29:47.703Z,2812.00
2018-09-04T05:30:47.732Z,2820.00
2018-09-04T05:31:47.731Z,2896.00
2018-09-04T05:32:47.808Z,2988.00
2018-09-04T05:33:47.762Z,3016.00
2018-09-04T05:34:47.752Z,3036.00
2018-09-04T05:35:47.831Z,3024.00
2018-09-04T05:36:47.786Z,2948.00
2018-09-04T05:37:47.789Z,2944.00
2018-09-04T05:38:47.861Z,2868.00
2018-09-04T05:39:47.807Z,2832.00
2018-09-04T05:40:47.842Z,2988.00
2018-09-04T05:41:47.838Z,3188.00
2018-09-04T05:42:47.823Z,3260.00
2018-09-04T05:43:47.887Z,3240.00
2018-09-04T05:44:47.892Z,3200.00
2018-09-04T05:45:47.931Z,3068.00
2018-09-04T05:46:47.914Z,3096.00
2018-09-04T05:47:47.911Z,2996.00
2018-09-04T05:48:47.916Z,2856.00
2018-09-04T05:49:47.921Z,2656.00
2018-09-04T05:50:47.927Z,2464.00
2018-09-04T05:51:47.957Z,2344.00
2018-09-04T05:52:47.938Z,2300.00
2018-09-04T05:53:47.977Z,2284.00
2018-09-04T05:54:47.983Z,2296.00
2018-09-04T05:55:47.987Z,2328.00
2018-09-04T05:56:48.109Z,2368.00
2018-09-04T05:57:48.022Z,2396.00
2018-09-04T05:58:48.029Z,2436.00
2018-09-04T05:59:48.057Z,2476.00
2018-09-04T06:00:48.055Z,2516.00
2018-09-04T06:01:48.108Z,2560.00
2018-09-04T06:02:48.115Z,2600.00
2018-09-04T06:03:48.092Z,2652.00
2018-09-04T06:04:48.076Z,2696.00
2018-09-04T06:05:48.118Z,2748.00
2018-09-04T06:06:48.099Z,2788.00
2018-09-04T06:07:48.167Z,2816.00
2018-09-04T06:08:48.155Z,2844.00
2018-09-04T06:09:48.139Z,2876.00
2018-09-04T06:10:48.156Z,2928.00
2018-09-04T06:11:48.159Z,2980.00
2018-09-04T06:12:48.200Z,3024.00
2018-09-04T06:13:48.272Z,3072.00
2018-09-04T06:14:48.179Z,3140.00
2018-09-04T06:15:48.222Z,3192.00
2018-09-04T06:16:48.238Z,3240.00
2018-09-04T06:17:48.273Z,3328.00
2018-09-04T06:18:48.238Z,3464.00
2018-09-04T06:19:48.245Z,3616.00
2018-09-04T06:20:48.285Z,3736.00
2018-09-04T06:21:48.260Z,3812.00
2018-09-04T06:22:48.302Z,3868.00
2018-09-04T06:23:48.307Z,3892.00
2018-09-04T06:24:48.330Z,3856.00
2018-09-04T06:25:48.310Z,3736.00
2018-09-04T06:26:48.316Z,3528.00
2018-09-04T06:27:48.353Z,3360.00
2018-09-04T06:28:48.341Z,3240.00
2018-09-04T06:29:48.377Z,3196.00
2018-09-04T06:30:48.387Z,3196.00
2018-09-04T06:31:48.380Z,3228.00
2018-09-04T06:32:48.390Z,3244.00
2018-09-04T06:33:48.410Z,3232.00
2018-09-04T06:34:48.417Z,3208.00
2018-09-04T06:35:48.405Z,3184.00
2018-09-04T06:36:48.512Z,3152.00
2018-09-04T06:37:48.471Z,3136.00
2018-09-04T06:38:48.483Z,3116.00
2018-09-04T06:39:48.477Z,3100.00
2018-09-04T06:40:48.487Z,3076.00
2018-09-04T06:41:48.520Z,3052.00
2018-09-04T06:42:48.515Z,3036.00
2018-09-04T06:43:48.493Z,3020.00
2018-09-04T06:44:48.530Z,3016.00
2018-09-04T06:45:48.527Z,3008.00
2018-09-04T06:46:48.575Z,3004.00
2018-09-04T06:47:48.540Z,2996.00
2018-09-04T06:48:48.594Z,2996.00
2018-09-04T06:49:48.595Z,2996.00
2018-09-04T06:50:48.725Z,3000.00
2018-09-04T06:51:48.613Z,3028.00
2018-09-04T06:52:48.698Z,3012.00
2018-09-04T06:53:48.622Z,3024.00
2018-09-04T06:54:48.648Z,3028.00
2018-09-04T06:55:48.645Z,3044.00
2018-09-04T06:56:48.727Z,3056.00
2018-09-04T06:57:48.713Z,3060.00
2018-09-04T06:58:48.730Z,3064.00
2018-09-04T06:59:48.691Z,3072.00
2018-09-04T07:00:48.692Z,3072.00
2018-09-04T07:01:48.741Z,3076.00
2018-09-04T07:02:48.750Z,3092.00
2018-09-04T07:03:48.736Z,3092.00
2018-09-04T07:04:48.772Z,3092.00
2018-09-04T07:05:48.751Z,3100.00
2018-09-04T07:06:48.778Z,3092.00
2018-09-04T07:07:48.811Z,3092.00
2018-09-04T07:08:48.800Z,3100.00
2018-09-04T07:09:48.832Z,3112.00
2018-09-04T07:10:48.830Z,3112.00
2018-09-04T07:11:48.813Z,3112.00
2018-09-04T07:12:48.829Z,3108.00
2018-09-04T07:13:48.830Z,3112.00
2018-09-04T07:14:48.887Z,3104.00
2018-09-04T07:15:48.918Z,3104.00
2018-09-04T07:16:48.883Z,3096.00
2018-09-04T07:17:48.886Z,3088.00
2018-09-04T07:18:48.915Z,3076.00
2018-09-04T07:19:48.910Z,3072.00
2018-09-04T07:20:48.993Z,3076.00
2018-09-04T07:21:48.941Z,3068.00
2018-09-04T07:22:48.982Z,3060.00
2018-09-04T07:23:48.954Z,3048.00
2018-09-04T07:24:48.967Z,3040.00
2018-09-04T07:25:49.006Z,3032.00
2018-09-04T07:26:49.015Z,3020.00
2018-09-04T07:27:49.004Z,3016.00
2018-09-04T07:28:49.037Z,3004.00
2018-09-04T07:29:49.026Z,2992.00
2018-09-04T07:30:49.038Z,2988.00
2018-09-04T07:31:49.064Z,2976.00
2018-09-04T07:32:49.066Z,2972.00
2018-09-04T07:33:49.224Z,2960.00
2018-09-04T07:34:49.077Z,2948.00
2018-09-04T07:35:49.183Z,2948.00
2018-09-04T07:36:49.087Z,2932.00
2018-09-04T07:37:49.125Z,2928.00
2018-09-04T07:38:49.345Z,2916.00
2018-09-04T07:39:49.136Z,2908.00
2018-09-04T07:40:49.138Z,2900.00
2018-09-04T07:41:49.146Z,2892.00
2018-09-04T07:42:49.209Z,2892.00
2018-09-04T07:43:49.233Z,2888.00
2018-09-04T07:44:49.186Z,2868.00
2018-09-04T07:45:49.194Z,2860.00
2018-09-04T07:46:49.231Z,2856.00
2018-09-04T07:47:49.205Z,2848.00
2018-09-04T07:48:49.277Z,2844.00
2018-09-04T07:49:49.277Z,2840.00
2018-09-04T07:50:49.270Z,2840.00
2018-09-04T07:51:49.273Z,2836.00
2018-09-04T07:52:49.291Z,2836.00
2018-09-04T07:53:49.448Z,2828.00
2018-09-04T07:54:49.289Z,2832.00
2018-09-04T07:55:49.387Z,2832.00
2018-09-04T07:56:49.326Z,2836.00
2018-09-04T07:57:49.336Z,2828.00
2018-09-04T07:58:49.338Z,2832.00
2018-09-04T07:59:49.364Z,2832.00
2018-09-04T08:00:49.433Z,2828.00
2018-09-04T08:01:49.405Z,2756.00
2018-09-04T08:02:49.402Z,2828.00
2018-09-04T08:03:49.452Z,2664.00
2018-09-04T08:04:49.417Z,2308.00
2018-09-04T08:05:49.418Z,2412.00
2018-09-04T08:06:49.489Z,2756.00
2018-09-04T08:07:49.452Z,2820.00
2018-09-04T08:08:49.470Z,2824.00
2018-09-04T08:09:49.468Z,2828.00
2018-09-04T08:10:49.479Z,2828.00
2018-09-04T08:11:49.506Z,2824.00
2018-09-04T08:12:49.878Z,2832.00
2018-09-04T08:13:49.532Z,2836.00
2018-09-04T08:14:49.511Z,2836.00
2018-09-04T08:15:49.549Z,2836.00
2018-09-04T08:16:49.548Z,2840.00
2018-09-04T08:17:49.642Z,2844.00
2018-09-04T08:18:49.586Z,2852.00
2018-09-04T08:19:49.609Z,2848.00
2018-09-04T08:20:49.641Z,2848.00
2018-09-04T08:21:49.602Z,2852.00
2018-09-04T08:22:49.633Z,2848.00
2018-09-04T08:23:49.661Z,2852.00
2018-09-04T08:24:49.643Z,2852.00
2018-09-04T08:25:49.696Z,2880.00
2018-09-04T08:26:49.658Z,2864.00
2018-09-04T08:27:49.661Z,2868.00
2018-09-04T08:28:49.678Z,2876.00
2018-09-04T08:29:49.708Z,2884.00
2018-09-04T08:30:49.846Z,2888.00
2018-09-04T08:31:49.749Z,2920.00
2018-09-04T08:32:49.795Z,2916.00
2018-09-04T08:33:49.749Z,2924.00
2018-09-04T08:34:49.779Z,2928.00
2018-09-04T08:35:49.791Z,2936.00
2018-09-04T08:36:49.828Z,2940.00
2018-09-04T08:37:49.799Z,2928.00
2018-09-04T08:38:49.799Z,2928.00
2018-09-04T08:39:49.845Z,2920.00
2018-09-04T08:40:49.831Z,2972.00
2018-09-04T08:41:49.875Z,2924.00
2018-09-04T08:42:49.854Z,2920.00
2018-09-04T08:43:49.900Z,2932.00
2018-09-04T08:44:49.864Z,2932.00
2018-09-04T08:45:49.897Z,2944.00
2018-09-04T08:46:49.953Z,2944.00
2018-09-04T08:47:50.048Z,2944.00
2018-09-04T08:48:49.949Z,2952.00
2018-09-04T08:49:49.925Z,2956.00
2018-09-04T08:50:49.927Z,2968.00
2018-09-04T08:51:50.066Z,2956.00
2018-09-04T08:52:49.946Z,2956.00
2018-09-04T08:53:50.005Z,2924.00
2018-09-04T08:54:50.019Z,2956.00
2018-09-04T08:55:50.014Z,2956.00
2018-09-04T08:56:50.003Z,2952.00
2018-09-04T08:57:50.081Z,2948.00
2018-09-04T08:58:50.039Z,2956.00
2018-09-04T08:59:50.043Z,2944.00
2018-09-04T09:00:50.056Z,2948.00
2018-09-04T09:01:50.068Z,2948.00
2018-09-04T09:02:50.103Z,2952.00
2018-09-04T09:03:50.143Z,2964.00
2018-09-04T09:04:50.115Z,2988.00
2018-09-04T09:05:50.110Z,3000.00
2018-09-04T09:06:50.148Z,3020.00
2018-09-04T09:07:50.232Z,3024.00
2018-09-04T09:08:50.213Z,3032.00
2018-09-04T09:09:50.247Z,3052.00
2018-09-04T09:10:50.168Z,3056.00
2018-09-04T09:11:50.191Z,3072.00
2018-09-04T09:12:50.196Z,3072.00
2018-09-04T09:13:50.341Z,3076.00
2018-09-04T09:14:50.229Z,3072.00
2018-09-04T09:15:50.282Z,3072.00
2018-09-04T09:16:50.446Z,3052.00
2018-09-04T09:17:50.398Z,3036.00
2018-09-04T09:18:50.358Z,3032.00
2018-09-04T09:19:50.352Z,3036.00
2018-09-04T09:20:50.291Z,3020.00
2018-09-04T09:21:50.353Z,3024.00
2018-09-04T09:22:50.372Z,3028.00
2018-09-04T09:23:50.335Z,3024.00
2018-09-04T09:24:50.339Z,3024.00
2018-09-04T09:25:50.353Z,3024.00
2018-09-04T09:26:50.400Z,3024.00
2018-09-04T09:27:50.380Z,3048.00
2018-09-04T09:28:50.403Z,3044.00
2018-09-04T09:29:50.482Z,3108.00
2018-09-04T09:30:50.454Z,3072.00
2018-09-04T09:31:50.432Z,3060.00
2018-09-04T09:32:50.487Z,3072.00
2018-09-04T09:33:50.446Z,3060.00
2018-09-04T09:34:50.455Z,3060.00
2018-09-04T09:35:50.494Z,3060.00
2018-09-04T09:36:50.573Z,3052.00
2018-09-04T09:37:50.508Z,3048.00
2018-09-04T09:38:50.515Z,3036.00
2018-09-04T09:39:50.515Z,3044.00
2018-09-04T09:40:50.534Z,3024.00
2018-09-04T09:41:50.609Z,3040.00
2018-09-04T09:42:50.600Z,3020.00
2018-09-04T09:43:50.583Z,3036.00
2018-09-04T09:44:50.573Z,3008.00
2018-09-04T09:45:50.607Z,3016.00
2018-09-04T09:46:50.627Z,3004.00
2018-09-04T09:47:50.640Z,2992.00
2018-09-04T09:48:50.646Z,2976.00
2018-09-04T09:49:50.664Z,2968.00
2018-09-04T09:50:50.692Z,2956.00
2018-09-04T09:51:50.669Z,2956.00
2018-09-04T09:52:50.757Z,2928.00
2018-09-04T09:53:50.686Z,2924.00
2018-09-04T09:54:50.761Z,2912.00
2018-09-04T09:55:50.723Z,2904.00
2018-09-04T09:56:50.737Z,2916.00
2018-09-04T09:57:50.736Z,2900.00
2018-09-04T09:58:50.744Z,2900.00
2018-09-04T09:59:50.898Z,2892.00
2018-09-04T10:00:50.845Z,2880.00
2018-09-04T10:01:50.808Z,2876.00
2018-09-04T10:02:50.810Z,2876.00
2018-09-04T10:03:50.910Z,2880.00
2018-09-04T10:04:50.867Z,2872.00
2018-09-04T10:05:50.863Z,2868.00
2018-09-04T10:06:50.841Z,2860.00
2018-09-04T10:07:50.965Z,2856.00
2018-09-04T10:08:50.887Z,2852.00
2018-09-04T10:09:50.963Z,2896.00
2018-09-04T10:10:50.889Z,2848.00
2018-09-04T10:11:50.959Z,2840.00
2018-09-04T10:12:50.973Z,2836.00
2018-09-04T10:13:50.987Z,2836.00
2018-09-04T10:14:50.977Z,2852.00
2018-09-04T10:15:50.954Z,2836.00
2018-09-04T10:16:50.993Z,2832.00
2018-09-04T10:17:50.974Z,2836.00
2018-09-04T10:18:51.026Z,2836.00
2018-09-04T10:19:51.116Z,2832.00
2018-09-04T10:20:51.023Z,2848.00
2018-09-04T10:21:51.054Z,2864.00
2018-09-04T10:22:51.071Z,2860.00
2018-09-04T10:23:51.093Z,2852.00
2018-09-04T10:24:51.084Z,2844.00
2018-09-04T10:25:51.092Z,2848.00
2018-09-04T10:26:51.102Z,2856.00
2018-09-04T10:27:51.123Z,2860.00
2018-09-04T10:28:51.154Z,2880.00
2018-09-04T10:29:51.188Z,2912.00
2018-09-04T10:30:51.235Z,2948.00
2018-09-04T10:31:51.195Z,2940.00
2018-09-04T10:32:51.202Z,2928.00
2018-09-04T10:33:51.187Z,2904.00
2018-09-04T10:34:51.217Z,2888.00
2018-09-04T10:35:51.245Z,2900.00
2018-09-04T10:36:51.264Z,2884.00
2018-09-04T10:37:51.256Z,2896.00
2018-09-04T10:38:51.256Z,2944.00
2018-09-04T10:39:51.282Z,3000.00
2018-09-04T10:40:51.316Z,3028.00
2018-09-04T10:41:51.297Z,3052.00
2018-09-04T10:42:51.302Z,3132.00
2018-09-04T10:43:51.313Z,3208.00
2018-09-04T10:44:51.321Z,3216.00
2018-09-04T10:45:51.346Z,3296.00
2018-09-04T10:46:51.367Z,3432.00
2018-09-04T10:47:51.392Z,3588.00
2018-09-04T10:48:51.393Z,3864.00
2018-09-04T10:49:51.391Z,4352.00
2018-09-04T10:50:51.389Z,4828.00
2018-09-04T10:51:51.454Z,5180.00
2018-09-04T10:52:51.468Z,5584.00
2018-09-04T10:53:51.422Z,5804.00
2018-09-04T10:54:51.473Z,5660.00
2018-09-04T10:55:51.535Z,5620.00
2018-09-04T10:56:51.491Z,5528.00
2018-09-04T10:57:51.570Z,5448.00
2018-09-04T10:58:51.530Z,5328.00
2018-09-04T10:59:51.534Z,5276.00
2018-09-04T11:00:51.530Z,5048.00
2018-09-04T11:01:51.589Z,4836.00
2018-09-04T11:02:51.593Z,4704.00
2018-09-04T11:03:51.576Z,4688.00
2018-09-04T11:04:51.592Z,4536.00
2018-09-04T11:05:51.616Z,4540.00
2018-09-04T11:06:51.615Z,4656.00
2018-09-04T11:07:51.688Z,4672.00
2018-09-04T11:08:51.634Z,4696.00
2018-09-04T11:09:51.779Z,4804.00
2018-09-04T11:10:51.692Z,4912.00
2018-09-04T11:11:51.731Z,5048.00
2018-09-04T11:12:51.819Z,5128.00
2018-09-04T11:13:51.719Z,5268.00
2018-09-04T11:14:51.710Z,5468.00
2018-09-04T11:15:51.732Z,5832.00
2018-09-04T11:16:51.749Z,6132.00
2018-09-04T11:17:51.755Z,6328.00
2018-09-04T11:18:51.822Z,6388.00
2018-09-04T11:19:51.826Z,6544.00
2018-09-04T11:20:51.834Z,6856.00
2018-09-04T11:21:51.814Z,6984.00
2018-09-04T11:22:51.848Z,6700.00
2018-09-04T11:23:51.894Z,6236.00
2018-09-04T11:24:51.895Z,6100.00
2018-09-04T11:25:51.893Z,6408.00
2018-09-04T11:26:51.932Z,6368.00
2018-09-04T11:27:51.897Z,5880.00
2018-09-04T11:28:51.954Z,5612.00
2018-09-04T11:29:51.950Z,5116.00
2018-09-04T11:30:51.926Z,4728.00
2018-09-04T11:31:51.930Z,4604.00
2018-09-04T11:32:52.014Z,4668.00
2018-09-04T11:33:52.004Z,4964.00
2018-09-04T11:34:51.970Z,5432.00
2018-09-04T11:35:52.044Z,5848.00
2018-09-04T11:36:51.999Z,6048.00
2018-09-04T11:37:52.014Z,6148.00
2018-09-04T11:38:52.025Z,5996.00
2018-09-04T11:39:52.055Z,5680.00
2018-09-04T11:40:52.161Z,5352.00
2018-09-04T11:41:52.086Z,4868.00
2018-09-04T11:42:52.106Z,4640.00
2018-09-04T11:43:52.099Z,4432.00
2018-09-04T11:44:52.170Z,4428.00
2018-09-04T11:45:52.151Z,4500.00
2018-09-04T11:46:52.213Z,4448.00
2018-09-04T11:47:52.163Z,4448.00
2018-09-04T11:48:52.176Z,4744.00
2018-09-04T11:49:52.197Z,5100.00
2018-09-04T11:50:52.245Z,5092.00
2018-09-04T11:51:52.231Z,4764.00
2018-09-04T11:52:52.271Z,4808.00
2018-09-04T11:53:52.269Z,4840.00
2018-09-04T11:54:52.256Z,4640.00
2018-09-04T11:55:52.286Z,4464.00
2018-09-04T11:56:52.295Z,4272.00
2018-09-04T11:57:52.340Z,4184.00
2018-09-04T11:58:52.319Z,4244.00
2018-09-04T11:59:52.333Z,4464.00
2018-09-04T12:00:52.347Z,4680.00
2018-09-04T12:01:52.362Z,4832.00
2018-09-04T12:02:52.426Z,4988.00
2018-09-04T12:03:52.379Z,5088.00
2018-09-04T12:04:52.397Z,5456.00
2018-09-04T12:05:52.544Z,5852.00
2018-09-04T12:06:52.462Z,6160.00
2018-09-04T12:07:53.134Z,6300.00
2018-09-04T12:08:52.495Z,6636.00
2018-09-04T12:09:52.479Z,7044.00
2018-09-04T12:10:52.490Z,7280.00
2018-09-04T12:11:52.502Z,7000.00
2018-09-04T12:12:52.581Z,6312.00
2018-09-04T12:13:52.567Z,5936.00
2018-09-04T12:14:52.524Z,5800.00
2018-09-04T12:15:52.549Z,5928.00
2018-09-04T12:16:52.570Z,6128.00
2018-09-04T12:17:52.600Z,6204.00
2018-09-04T12:18:52.669Z,6272.00
2018-09-04T12:19:52.634Z,6428.00
2018-09-04T12:20:52.716Z,6588.00
2018-09-04T12:21:52.629Z,6556.00
2018-09-04T12:22:52.654Z,6320.00
2018-09-04T12:23:52.673Z,6252.00
2018-09-04T12:24:52.692Z,6000.00
2018-09-04T12:25:52.724Z,6088.00
2018-09-04T12:26:52.680Z,6496.00
2018-09-04T12:27:52.729Z,6660.00
2018-09-04T12:28:52.710Z,6532.00
2018-09-04T12:29:52.747Z,6532.00